createdAt,value
2023-02-06T00:01:49.722Z,58.13
2023-02-06T00:04:18.205Z,58.53
2023-02-06T00:06:47.232Z,57.30
2023-02-06T00:09:16.185Z,58.00
2023-02-06T00:11:44.672Z,55.07
2023-02-06T00:14:13.075Z,54.60
2023-02-06T00:16:43.082Z,54.23
2023-02-06T00:19:11.557Z,55.90
2023-02-06T00:21:40.069Z,57.93
2023-02-06T00:24:08.732Z,59.40
2023-02-06T00:26:37.481Z,63.03
2023-02-06T00:29:06.117Z,63.63
2023-02-06T00:31:34.690Z,65.57
2023-02-06T00:34:04.771Z,70.60
2023-02-06T00:36:34.309Z,69.27
2023-02-06T00:39:03.055Z,69.10
2023-02-06T00:41:31.569Z,67.27
2023-02-06T00:43:59.930Z,68.43
2023-02-06T00:46:28.420Z,67.67
2023-02-06T00:48:56.929Z,63.30
2023-02-06T00:51:26.773Z,59.00
2023-02-06T00:53:55.244Z,60.93
2023-02-06T00:56:23.615Z,59.20
2023-02-06T00:58:52.066Z,61.07
2023-02-06T01:01:20.552Z,58.07
2023-02-06T01:03:49.152Z,57.07
2023-02-06T01:06:18.186Z,55.80
2023-02-06T01:08:48.980Z,55.10
2023-02-06T01:11:20.534Z,61.23
2023-02-06T01:13:49.521Z,68.03
2023-02-06T01:16:21.750Z,65.50
2023-02-06T01:18:50.738Z,60.60
2023-02-06T01:21:21.583Z,55.53
2023-02-06T01:23:53.602Z,50.73
2023-02-06T01:26:24.654Z,50.47
2023-02-06T01:28:53.184Z,51.60
2023-02-06T01:31:24.428Z,51.47
2023-02-06T01:33:53.639Z,50.30
2023-02-06T01:37:17.552Z,50.67
2023-02-06T01:39:47.444Z,51.00
2023-02-06T01:42:15.938Z,51.97
2023-02-06T01:44:44.416Z,50.87
2023-02-06T01:47:12.908Z,53.37
2023-02-06T01:49:45.609Z,54.30
2023-02-06T01:52:18.928Z,51.63
2023-02-06T01:54:51.871Z,56.07
2023-02-06T01:57:22.138Z,56.67
2023-02-06T02:00:01.536Z,56.20
2023-02-06T02:02:31.045Z,53.43
2023-02-06T02:05:02.493Z,52.27
2023-02-06T02:07:36.527Z,55.00
2023-02-06T02:10:07.351Z,48.10
2023-02-06T02:12:35.835Z,48.13
2023-02-06T02:15:04.472Z,47.13
2023-02-06T02:17:42.752Z,45.83
2023-02-06T02:20:34.255Z,42.93
2023-02-06T02:23:20.060Z,44.63
2023-02-06T02:26:08.324Z,43.73
2023-02-06T02:29:17.079Z,44.73
2023-02-06T02:32:22.202Z,41.80
2023-02-06T02:35:25.069Z,40.00
2023-02-06T02:38:03.597Z,40.00
2023-02-06T02:40:41.800Z,39.27
2023-02-06T02:43:20.010Z,38.90
2023-02-06T02:45:53.740Z,37.63
2023-02-06T02:48:26.896Z,39.10
2023-02-06T02:51:00.110Z,38.30
2023-02-06T02:53:28.946Z,37.20
2023-02-06T02:55:57.389Z,38.37
2023-02-06T02:58:30.545Z,35.63
2023-02-06T03:01:05.648Z,36.03
2023-02-06T03:03:36.830Z,32.10
2023-02-06T03:06:31.075Z,30.93
2023-02-06T03:09:04.839Z,28.47
2023-02-06T03:11:33.619Z,32.13
2023-02-06T03:14:07.939Z,32.63
2023-02-06T03:16:40.925Z,33.63
2023-02-06T03:19:13.304Z,33.50
2023-02-06T03:21:46.217Z,34.03
2023-02-06T03:24:20.714Z,36.03
2023-02-06T03:26:52.079Z,37.80
2023-02-06T03:29:21.829Z,36.70
2023-02-06T03:31:55.243Z,37.73
2023-02-06T03:34:27.895Z,41.77
2023-02-06T03:36:58.008Z,38.40
2023-02-06T03:39:26.835Z,41.20
2023-02-06T03:41:57.800Z,40.07
2023-02-06T03:44:30.345Z,39.97
2023-02-06T03:47:01.652Z,40.07
2023-02-06T03:49:33.472Z,42.63
2023-02-06T03:52:07.446Z,44.63
2023-02-06T03:54:40.234Z,44.07
2023-02-06T03:57:13.193Z,43.93
2023-02-06T03:59:41.817Z,46.13
2023-02-06T04:02:10.826Z,47.20
2023-02-06T04:04:42.229Z,48.50
2023-02-06T04:07:16.911Z,46.87
2023-02-06T04:09:45.684Z,48.73
2023-02-06T04:12:14.125Z,50.20
2023-02-06T04:14:42.580Z,50.87
2023-02-06T04:17:12.176Z,53.87
2023-02-06T04:19:42.366Z,61.80
2023-02-06T04:22:15.273Z,57.30
2023-02-06T04:24:44.040Z,56.03
2023-02-06T04:27:14.938Z,51.33
2023-02-06T04:29:43.411Z,53.07
2023-02-06T04:32:12.077Z,66.80
2023-02-06T04:34:40.712Z,70.60
2023-02-06T04:37:09.745Z,52.57
2023-02-06T04:39:39.931Z,43.03
2023-02-06T04:42:08.927Z,41.97
2023-02-06T04:44:38.683Z,38.47
2023-02-06T04:47:07.541Z,38.93
2023-02-06T04:49:35.971Z,39.03
2023-02-06T04:52:04.502Z,39.00
2023-02-06T04:54:33.066Z,46.10
2023-02-06T04:57:02.976Z,52.80
2023-02-06T04:59:31.570Z,51.57
2023-02-06T05:01:59.975Z,45.10
2023-02-06T05:04:28.633Z,39.20
2023-02-06T05:06:59.830Z,43.97
2023-02-06T05:09:28.672Z,45.87
2023-02-06T05:11:57.196Z,42.43
2023-02-06T05:14:27.280Z,39.20
2023-02-06T05:16:55.901Z,34.60
2023-02-06T05:19:24.401Z,45.87
2023-02-06T05:21:53.166Z,52.03
2023-02-06T05:24:21.712Z,52.63
2023-02-06T05:26:50.379Z,55.80
2023-02-06T05:29:18.765Z,53.43
2023-02-06T05:31:48.686Z,55.33
2023-02-06T05:34:17.152Z,55.10
2023-02-06T05:36:45.694Z,50.63
2023-02-06T05:39:16.955Z,47.83
2023-02-06T05:41:45.631Z,45.93
2023-02-06T05:44:14.345Z,46.43
2023-02-06T05:46:42.754Z,41.20
2023-02-06T05:49:12.890Z,45.37
2023-02-06T05:51:41.313Z,49.93
2023-02-06T05:54:09.859Z,47.47
2023-02-06T05:56:38.415Z,48.40
2023-02-06T05:59:06.843Z,45.03
2023-02-06T06:01:36.034Z,41.33
2023-02-06T06:04:04.620Z,43.67
2023-02-06T06:06:34.880Z,45.07
2023-02-06T06:09:03.662Z,40.17
2023-02-06T06:11:33.661Z,40.07
2023-02-06T06:14:02.202Z,39.37
2023-02-06T06:16:30.708Z,42.93
2023-02-06T06:18:59.231Z,43.83
2023-02-06T06:21:27.713Z,44.27
2023-02-06T06:23:58.058Z,43.40
2023-02-06T06:26:26.500Z,42.30
2023-02-06T06:28:54.981Z,42.57
2023-02-06T06:31:23.541Z,40.83
2023-02-06T06:33:53.013Z,40.60
2023-02-06T06:36:21.506Z,40.43
2023-02-06T06:38:50.141Z,38.60
2023-02-06T06:41:20.020Z,38.93
2023-02-06T06:43:51.227Z,37.00
2023-02-06T06:46:20.020Z,38.13
2023-02-06T06:48:48.539Z,38.40
2023-02-06T06:51:17.184Z,40.80
2023-02-06T06:53:45.764Z,41.90
2023-02-06T06:56:15.800Z,40.80
2023-02-06T06:58:45.668Z,38.73
2023-02-06T07:01:15.200Z,37.20
2023-02-06T07:03:45.629Z,35.87
2023-02-06T07:06:14.395Z,35.10
2023-02-06T07:08:43.771Z,35.53
2023-02-06T07:11:14.743Z,36.20
2023-02-06T07:13:46.211Z,35.00
2023-02-06T07:16:15.047Z,40.00
2023-02-06T07:18:43.574Z,46.43
2023-02-06T07:21:14.358Z,44.47
2023-02-06T07:23:43.042Z,39.17
2023-02-06T07:26:11.530Z,36.97
2023-02-06T07:28:40.227Z,35.07
2023-02-06T07:31:10.352Z,35.90
2023-02-06T07:33:38.818Z,37.43
2023-02-06T07:36:10.817Z,39.10
2023-02-06T07:38:39.242Z,39.20
2023-02-06T07:41:08.506Z,38.67
2023-02-06T07:43:37.132Z,36.87
2023-02-06T07:46:07.463Z,35.17
2023-02-06T07:48:37.414Z,34.07
2023-02-06T07:51:07.191Z,43.67
2023-02-06T07:53:36.075Z,42.40
2023-02-06T07:56:11.371Z,39.27
2023-02-06T07:58:39.842Z,39.97
2023-02-06T08:01:08.785Z,38.53
2023-02-06T08:03:38.996Z,41.07
2023-02-06T08:06:11.790Z,33.43
2023-02-06T08:08:40.572Z,37.77
2023-02-06T08:11:10.297Z,41.13
2023-02-06T08:13:39.577Z,40.17
2023-02-06T08:16:10.351Z,36.80
2023-02-06T08:18:40.769Z,36.97
2023-02-06T08:21:11.861Z,39.37
2023-02-06T08:23:40.580Z,49.17
2023-02-06T08:26:11.555Z,48.57
2023-02-06T08:28:42.284Z,38.37
2023-02-06T08:31:12.554Z,36.53
2023-02-06T08:33:42.915Z,34.93
2023-02-06T08:36:12.625Z,36.43
2023-02-06T08:38:41.729Z,36.03
2023-02-06T08:41:19.085Z,36.90
2023-02-06T08:43:47.815Z,36.50
2023-02-06T08:46:17.791Z,36.27
2023-02-06T08:48:48.184Z,35.43
2023-02-06T08:51:16.861Z,34.53
2023-02-06T08:53:45.257Z,32.30
2023-02-06T08:56:14.105Z,31.27
2023-02-06T08:58:42.864Z,35.40
2023-02-06T09:01:14.643Z,35.77
2023-02-06T09:03:43.205Z,31.83
2023-02-06T09:06:13.809Z,26.17
2023-02-06T09:08:42.920Z,27.13
2023-02-06T09:11:12.208Z,28.33
2023-02-06T09:13:41.028Z,29.57
2023-02-06T09:16:10.018Z,26.17
2023-02-06T09:18:38.549Z,24.70
2023-02-06T09:21:10.350Z,25.77
2023-02-06T09:23:40.792Z,25.03
2023-02-06T09:26:09.781Z,25.97
2023-02-06T09:28:38.358Z,27.03
2023-02-06T09:31:08.465Z,24.77
2023-02-06T09:33:38.227Z,24.40
2023-02-06T09:36:09.222Z,23.23
2023-02-06T09:38:40.198Z,22.83
2023-02-06T09:41:17.266Z,22.27
2023-02-06T09:43:52.929Z,21.77
2023-02-06T09:46:27.615Z,21.97
2023-02-06T09:48:59.506Z,21.77
2023-02-06T09:51:40.220Z,20.73
2023-02-06T09:54:18.101Z,19.37
2023-02-06T09:56:54.464Z,21.00
2023-02-06T09:59:28.657Z,19.10
2023-02-06T10:02:07.688Z,18.20
2023-02-06T10:04:46.929Z,19.00
2023-02-06T10:07:44.475Z,18.90
2023-02-06T10:10:19.322Z,19.30
2023-02-06T10:12:53.456Z,17.83
2023-02-06T10:15:30.224Z,16.60
2023-02-06T10:18:02.978Z,19.13
2023-02-06T10:20:38.635Z,24.00
2023-02-06T10:23:15.316Z,24.77
2023-02-06T10:26:04.605Z,16.40
2023-02-06T10:28:35.592Z,14.43
2023-02-06T10:31:17.587Z,13.43
2023-02-06T10:33:52.443Z,13.37
2023-02-06T10:36:41.907Z,13.20
2023-02-06T10:39:33.001Z,11.67
2023-02-06T10:42:09.976Z,10.23
2023-02-06T10:44:51.149Z,10.07
2023-02-06T10:47:30.515Z,8.93
2023-02-06T10:50:04.930Z,9.33
2023-02-06T10:52:36.993Z,8.93
2023-02-06T10:55:18.102Z,9.63
2023-02-06T10:57:51.357Z,7.87
2023-02-06T11:00:27.675Z,14.93
2023-02-06T11:03:07.201Z,8.73
2023-02-06T11:05:37.224Z,11.43
2023-02-06T11:08:12.673Z,9.70
2023-02-06T11:10:41.739Z,9.47
2023-02-06T11:13:16.567Z,7.90
2023-02-06T11:15:55.523Z,8.90
2023-02-06T11:18:31.169Z,9.00
2023-02-06T11:21:00.328Z,8.43
2023-02-06T11:23:31.171Z,9.30
2023-02-06T11:26:09.201Z,8.63
2023-02-06T11:28:42.573Z,8.40
2023-02-06T11:31:13.360Z,8.93
2023-02-06T11:33:49.335Z,8.97
2023-02-06T11:36:27.778Z,8.93
2023-02-06T11:38:58.845Z,8.73
2023-02-06T11:41:28.226Z,8.23
2023-02-06T11:44:07.271Z,8.97
2023-02-06T11:46:37.593Z,7.07
2023-02-06T11:49:09.872Z,8.37
2023-02-06T11:51:51.735Z,7.57
2023-02-06T11:54:23.226Z,13.90
2023-02-06T11:57:02.244Z,15.80
2023-02-06T11:59:34.810Z,8.40
2023-02-06T12:02:07.198Z,7.57
2023-02-06T12:04:39.374Z,6.87
2023-02-06T12:07:30.208Z,8.27
2023-02-06T12:09:58.836Z,7.90
2023-02-06T12:12:31.346Z,7.97
2023-02-06T12:15:23.652Z,7.40
2023-02-06T12:17:56.894Z,8.70
2023-02-06T12:20:29.588Z,8.13
2023-02-06T12:23:02.532Z,7.87
2023-02-06T12:25:36.677Z,6.90
2023-02-06T12:28:22.664Z,6.50
2023-02-06T12:30:57.347Z,7.57
2023-02-06T12:33:34.245Z,7.37
2023-02-06T12:36:08.239Z,6.43
2023-02-06T12:38:44.307Z,7.07
2023-02-06T12:41:25.204Z,8.10
2023-02-06T12:43:58.355Z,7.57
2023-02-06T12:46:30.016Z,8.37
2023-02-06T12:49:16.372Z,7.40
2023-02-06T12:51:59.534Z,7.73
2023-02-06T12:54:33.667Z,7.37
2023-02-06T12:57:06.520Z,8.03
2023-02-06T12:59:58.492Z,7.30
2023-02-06T13:03:03.821Z,7.40
2023-02-06T13:05:37.632Z,7.70
2023-02-06T13:08:10.111Z,7.53
2023-02-06T13:10:39.705Z,10.70
2023-02-06T13:13:08.892Z,9.33
2023-02-06T13:15:41.547Z,9.43
2023-02-06T13:18:50.977Z,7.83
2023-02-06T13:21:28.805Z,10.00
2023-02-06T13:24:22.053Z,8.57
2023-02-06T13:27:05.144Z,8.50
2023-02-06T13:29:35.621Z,9.63
2023-02-06T13:32:46.734Z,10.53
2023-02-06T13:35:30.080Z,9.93
2023-02-06T13:38:29.978Z,8.30
2023-02-06T13:41:28.480Z,8.23
2023-02-06T13:43:59.375Z,7.43
2023-02-06T13:46:42.285Z,8.47
2023-02-06T13:49:32.176Z,9.70
2023-02-06T13:52:20.173Z,8.93
2023-02-06T13:55:01.262Z,7.73
2023-02-06T13:58:04.542Z,8.27
2023-02-06T14:00:35.541Z,8.00
2023-02-06T14:03:08.149Z,8.47
2023-02-06T14:05:46.738Z,7.90
2023-02-06T14:08:28.493Z,8.93
2023-02-06T14:11:16.559Z,8.40
2023-02-06T14:14:14.795Z,9.40
2023-02-06T14:16:50.991Z,8.27
2023-02-06T14:19:28.630Z,8.67
2023-02-06T14:22:05.119Z,7.87
2023-02-06T14:24:50.786Z,8.90
2023-02-06T14:27:30.528Z,9.47
2023-02-06T14:30:09.558Z,10.77
2023-02-06T14:32:45.681Z,10.43
2023-02-06T14:35:44.497Z,9.37
2023-02-06T14:38:37.318Z,9.00
2023-02-06T14:41:07.968Z,7.10
2023-02-06T14:43:40.701Z,7.57
2023-02-06T14:46:14.965Z,7.63
2023-02-06T14:48:49.020Z,10.13
2023-02-06T14:51:25.218Z,8.80
2023-02-06T14:53:56.707Z,8.90
2023-02-06T14:56:32.539Z,9.90
2023-02-06T14:59:16.887Z,6.90
2023-02-06T15:01:47.629Z,8.53
2023-02-06T15:04:18.781Z,8.37
2023-02-06T15:06:53.791Z,7.77
2023-02-06T15:09:30.936Z,7.53
2023-02-06T15:12:02.896Z,7.83
2023-02-06T15:14:34.204Z,9.70
2023-02-06T15:17:03.771Z,10.50
2023-02-06T15:19:33.851Z,9.87
2023-02-06T15:22:04.538Z,10.23
2023-02-06T15:24:47.385Z,10.03
2023-02-06T15:27:27.863Z,10.77
2023-02-06T15:29:56.891Z,13.50
2023-02-06T15:32:30.359Z,18.90
2023-02-06T15:34:59.449Z,25.77
2023-02-06T15:37:30.480Z,24.60
2023-02-06T15:40:03.756Z,23.87
2023-02-06T15:42:34.140Z,15.03
2023-02-06T15:45:02.976Z,15.97
2023-02-06T15:47:32.451Z,18.40
2023-02-06T15:50:01.472Z,15.97
2023-02-06T15:52:36.111Z,16.43
2023-02-06T15:55:05.372Z,22.33
2023-02-06T15:57:40.290Z,20.33
2023-02-06T16:00:23.728Z,24.87
2023-02-06T16:02:54.073Z,22.43
2023-02-06T16:05:30.954Z,17.43
2023-02-06T16:08:00.312Z,30.27
2023-02-06T16:10:31.258Z,28.70
2023-02-06T16:13:03.481Z,18.83
2023-02-06T16:15:34.913Z,17.33
2023-02-06T16:18:21.120Z,16.13
2023-02-06T16:20:49.670Z,29.30
2023-02-06T16:23:24.132Z,47.40
2023-02-06T16:26:05.767Z,65.83
2023-02-06T16:28:42.860Z,68.73
2023-02-06T16:31:16.813Z,75.63
2023-02-06T16:33:47.758Z,79.70
2023-02-06T16:36:21.298Z,75.47
2023-02-06T16:39:02.831Z,40.97
2023-02-06T16:41:34.888Z,26.97
2023-02-06T16:44:08.450Z,23.80
2023-02-06T16:46:37.207Z,24.80
2023-02-06T16:49:11.820Z,24.63
2023-02-06T16:51:42.615Z,23.63
2023-02-06T16:54:20.614Z,27.10
2023-02-06T16:56:49.539Z,31.00
2023-02-06T16:59:19.977Z,34.07
2023-02-06T17:01:48.791Z,33.40
2023-02-06T17:04:17.495Z,32.73
2023-02-06T17:06:46.521Z,33.93
2023-02-06T17:09:18.617Z,34.37
2023-02-06T17:11:47.488Z,33.30
2023-02-06T17:14:16.317Z,32.67
2023-02-06T17:16:46.301Z,31.20
2023-02-06T17:19:17.951Z,34.90
2023-02-06T17:21:47.311Z,35.10
2023-02-06T17:24:16.765Z,37.10
2023-02-06T17:26:48.201Z,46.73
2023-02-06T17:29:17.344Z,47.13
2023-02-06T17:31:47.863Z,48.93
2023-02-06T17:34:16.441Z,53.97
2023-02-06T17:36:46.216Z,64.53
2023-02-06T17:39:16.472Z,78.23
2023-02-06T17:41:46.409Z,71.10
2023-02-06T17:44:15.202Z,58.37
2023-02-06T17:46:50.105Z,74.93
2023-02-06T17:49:19.669Z,72.53
2023-02-06T17:51:49.043Z,63.57
2023-02-06T17:54:18.304Z,62.97
2023-02-06T17:56:46.791Z,65.03
2023-02-06T17:59:15.349Z,64.00
2023-02-06T18:01:43.974Z,65.93
2023-02-06T18:04:17.631Z,59.90
2023-02-06T18:06:46.726Z,54.43
2023-02-06T18:09:16.708Z,64.83
2023-02-06T18:11:45.186Z,70.57
2023-02-06T18:14:14.227Z,63.23
2023-02-06T18:16:43.151Z,50.23
2023-02-06T18:19:11.845Z,50.57
2023-02-06T18:21:42.235Z,46.63
2023-02-06T18:24:11.172Z,46.30
2023-02-06T18:26:40.236Z,45.10
2023-02-06T18:29:08.748Z,45.93
2023-02-06T18:31:37.977Z,44.17
2023-02-06T18:34:09.517Z,47.23
2023-02-06T18:36:38.857Z,49.30
2023-02-06T18:39:12.578Z,58.60
2023-02-06T18:41:58.578Z,71.00
2023-02-06T18:44:27.089Z,88.17
2023-02-06T18:46:56.332Z,103.13
2023-02-06T18:49:26.964Z,139.60
2023-02-06T18:51:55.498Z,155.63
2023-02-06T18:54:25.410Z,138.10
2023-02-06T18:56:53.915Z,124.40
2023-02-06T18:59:22.875Z,110.57
2023-02-06T19:01:54.066Z,99.33
2023-02-06T19:04:23.405Z,85.77
2023-02-06T19:06:52.100Z,95.53
2023-02-06T19:09:21.268Z,99.67
2023-02-06T19:11:51.400Z,105.33
2023-02-06T19:14:22.849Z,99.90
2023-02-06T19:16:53.172Z,97.60
2023-02-06T19:19:21.897Z,95.87
2023-02-06T19:21:50.602Z,91.77
2023-02-06T19:24:20.188Z,90.00
2023-02-06T19:26:48.798Z,90.33
2023-02-06T19:29:33.635Z,81.73
2023-02-06T19:32:03.938Z,81.17
2023-02-06T19:34:36.313Z,146.67
2023-02-06T19:37:05.466Z,205.67
2023-02-06T19:39:35.250Z,359.40
2023-02-06T19:42:06.601Z,258.20
2023-02-06T19:44:38.067Z,115.10
2023-02-06T19:47:07.247Z,92.87
2023-02-06T19:49:35.826Z,88.30
2023-02-06T19:52:04.709Z,86.47
2023-02-06T19:54:33.526Z,79.90
2023-02-06T19:57:02.035Z,72.90
2023-02-06T19:59:31.212Z,73.83
2023-02-06T20:02:04.655Z,68.70
2023-02-06T20:04:36.722Z,74.43
2023-02-06T20:07:05.265Z,83.87
2023-02-06T20:09:33.743Z,88.93
2023-02-06T20:12:02.208Z,94.70
2023-02-06T20:14:31.603Z,104.27
2023-02-06T20:17:00.122Z,103.27
2023-02-06T20:19:31.167Z,93.60
2023-02-06T20:22:01.605Z,99.77
2023-02-06T20:24:32.935Z,91.93
2023-02-06T20:27:06.030Z,86.10
2023-02-06T20:29:36.572Z,80.10
2023-02-06T20:32:06.234Z,71.93
2023-02-06T20:34:36.730Z,72.07
2023-02-06T20:37:05.393Z,69.50
2023-02-06T20:39:34.816Z,69.13
2023-02-06T20:42:03.360Z,71.90
2023-02-06T20:44:31.982Z,66.33
2023-02-06T20:47:01.310Z,66.80
2023-02-06T20:49:31.357Z,61.00
2023-02-06T20:52:01.652Z,57.77
2023-02-06T20:54:30.883Z,59.50
2023-02-06T20:57:00.622Z,57.07
2023-02-06T20:59:29.453Z,58.90
2023-02-06T21:01:59.103Z,56.90
2023-02-06T21:04:28.049Z,63.17
2023-02-06T21:06:56.578Z,71.50
2023-02-06T21:09:26.816Z,74.27
2023-02-06T21:11:55.218Z,70.33
2023-02-06T21:14:24.056Z,73.57
2023-02-06T21:16:52.736Z,72.53
2023-02-06T21:19:22.403Z,67.50
2023-02-06T21:21:51.047Z,60.77
2023-02-06T21:24:19.953Z,57.73
2023-02-06T21:26:50.281Z,61.40
2023-02-06T21:29:18.764Z,65.30
2023-02-06T21:31:47.734Z,58.83
2023-02-06T21:34:18.274Z,56.83
2023-02-06T21:36:47.686Z,52.97
2023-02-06T21:39:18.605Z,57.30
2023-02-06T21:41:48.155Z,54.43
2023-02-06T21:44:19.188Z,53.50
2023-02-06T21:46:47.780Z,58.87
2023-02-06T21:49:16.756Z,60.83
2023-02-06T21:51:45.564Z,56.63
2023-02-06T21:54:14.469Z,53.70
2023-02-06T21:56:43.072Z,56.07
2023-02-06T21:59:13.172Z,57.93
2023-02-06T22:01:43.510Z,57.37
2023-02-06T22:04:13.336Z,58.33
2023-02-06T22:06:42.013Z,57.53
2023-02-06T22:09:15.914Z,56.80
2023-02-06T22:11:45.336Z,56.33
2023-02-06T22:14:16.535Z,53.93
2023-02-06T22:16:47.569Z,53.03
2023-02-06T22:19:17.227Z,53.90
2023-02-06T22:21:46.375Z,53.50
2023-02-06T22:24:15.633Z,56.70
2023-02-06T22:26:44.446Z,58.43
2023-02-06T22:29:15.280Z,51.77
2023-02-06T22:31:48.739Z,54.20
2023-02-06T22:34:19.638Z,58.50
2023-02-06T22:36:49.217Z,52.53
2023-02-06T22:39:18.114Z,50.00
2023-02-06T22:41:47.512Z,59.90
2023-02-06T22:44:17.479Z,55.87
2023-02-06T22:46:50.294Z,56.43
2023-02-06T22:49:19.852Z,56.57
2023-02-06T22:51:48.549Z,57.60
2023-02-06T22:54:17.125Z,55.87
2023-02-06T22:56:46.123Z,52.87
2023-02-06T22:59:17.278Z,55.77
2023-02-06T23:01:49.462Z,59.37
2023-02-06T23:04:19.759Z,56.67
2023-02-06T23:06:49.530Z,54.63
2023-02-06T23:09:20.103Z,55.97
2023-02-06T23:11:49.477Z,53.67
2023-02-06T23:14:19.223Z,53.97
2023-02-06T23:16:49.595Z,58.93
2023-02-06T23:19:19.415Z,56.50
2023-02-06T23:21:49.441Z,55.80
2023-02-06T23:24:18.611Z,165.97
2023-02-06T23:26:48.882Z,165.23
2023-02-06T23:29:19.566Z,133.83
2023-02-06T23:31:50.016Z,221.17
2023-02-06T23:34:20.061Z,159.37
2023-02-06T23:36:49.252Z,68.97
2023-02-06T23:39:17.820Z,46.30
2023-02-06T23:41:46.505Z,47.50
2023-02-06T23:44:15.395Z,46.90
2023-02-06T23:46:43.916Z,45.43
2023-02-06T23:49:14.136Z,47.07
2023-02-06T23:51:42.741Z,52.73
2023-02-06T23:54:11.592Z,55.67
2023-02-06T23:56:40.413Z,54.50
2023-02-06T23:59:09.228Z,59.73
